Andover, SD

12:31 AM CDT on July 23, 2014 (GMT -0500)
KSDGROTO1 Elev 1295 ft | 45.45 °N, 98.10 °W | Change Station

Current weather conditions updated 10 minutes ago

Clear
Clear
65.9 °F
Feels Like 65.9 °F
N
2.0
Wind Variable Wind from ESE
Gusts 5.0 mph

Today is forecast to be nearly the same temperature as yesterday.

Today
High -- | Low -- °F
--% Chance of Precip.
Yesterday
High -- | Low -- °F
Precip. -- in
6:05 AM 9:09 PM
Waning Crescent, 12% visible
Pressure 30.24 in
Visibility 10.0 miles
Clouds Clear
Dew Point 61 °F
Humidity 84%
Rainfall 0.00 in
Snow Depth Not available.
UV 0 out of 12
Pollen 6.10 out of 12
Air Quality Not available.
Flu Activity Not available.
METAR KABR 230453Z AUTO 12003KT 10SM CLR 17/15 A3025 RMK AO2 SLP238 T01670150

More Conditions Fewer Conditions

Pressure 30.24 in
Visibility 10.0 miles
Clouds Clear
Dew Point 61 °F
Humidity 84%
Rainfall 0.00 in
Snow Depth Not available.
UV 0 out of 12
Pollen 6.10 out of 12
Air Quality Not available.
Flu Activity Not available.
METAR KABR 230453Z AUTO 12003KT 10SM CLR 17/15 A3025 RMK AO2 SLP238 T01670150

More Conditions Fewer Conditions

10-Day Weather Forecast

Almanac

Astronomy

Jul. 23, 2014 Rise Set
Actual Time 6:05 AM CDT 9:09 PM CDT
Civil Twilight 5:30 AM CDT 9:45 PM CDT
Nautical Twilight 4:45 AM CDT 10:30 PM CDT
Astronomical Twilight 3:50 AM CDT 11:24 PM CDT
Moon 3:27 AM CDT 6:38 PM CDT
Length of Visible Light 16h 14m
Length of Day
15h 03m
Tomorrow will be 2m 7s shorter.
Waning Crescent, 12% of the Moon is Illuminated
Today
Waning Crescent
Jul 26
New
Aug 3
First Quarter
Aug 10
Full
Aug 17
Last Quarter

Today's Extremes

State Highs State Lows

Community

WunderPhotos

Upload Photos

1,736,513 photos uploaded!

Nearby

Snow Depth

Station Depth Elevation
Blind Park 1 in 6890 ft

Earthquake Activity

City Distance Mag. Time & Date
No recent earthquake activity has been reported nearby.
Minimum magnitude displayed is 2.5.

Coastal Water Temperatures

Place Temperature
No Stations Reporting

Nearby Weather Stations

Station Location Temp. Dew Point Humidity Wind Precip. Elev Updated Type
Groton, SD 65.9 °F 61 °F 84% ESE  at  2.0 mph 0.00 in / hr 1295 ft 12:20 AM CDT Normal
NonFedAWOS WEBSTERMUNC , Webster, SD 66 °F 61 °F 83% North  at  0 mph 0.00 in / hr 1854 ft 10:55 PM CDT MADIS

Show More Stations Show Fewer Stations